Time;durP1;ratioP1;P1;durP2;ratioP2;P2;SDS_P1;SDS_P2;PMS_P1;PMS_P2;Temp;Humidity;BMP_temperature;BMP_pressure;BME280_temperature;BME280_humidity;BME280_pressure;Samples;Min_cycle;Max_cycle;Signal;HPM_P1;HPM_P2
2022/01/20 00:01:50;;;;;;;20.33;13.15;;;;;;;-0.14;57.29;102169.28;2570104;23;20155;-69
2022/01/20 00:02:57;;;;;;;24.75;14.32;;;;;;;-0.14;56.46;102169.28;2569392;23;20166;-69
2022/01/20 00:03:59;;;;;;;25.98;15.02;;;;;;;-0.13;56.56;102168.19;2570006;23;20140;-69
2022/01/20 00:05:53;;;;;;;26.33;14.18;;;;;;;-0.15;56.79;102167.69;2569893;23;20153;-69
2022/01/20 00:08:13;;;;;;;23.30;13.18;;;;;;;-0.82;56.63;102081.41;2532168;23;20233;-69
2022/01/20 00:09:30;;;;;;;18.38;11.40;;;;;;;-0.30;57.23;102168.19;2532109;23;20206;-69
2022/01/20 00:26:10;;;;;;;19.23;10.38;;;;;;;-1.08;56.17;102095.00;2569370;23;20164;-69
2022/01/20 00:27:13;;;;;;;20.00;12.30;;;;;;;-0.53;56.71;102171.41;2556739;23;20184;-69
2022/01/20 00:28:19;;;;;;;18.15;11.55;;;;;;;-0.93;56.76;102119.03;2557398;23;20715;-69
2022/01/20 00:29:30;;;;;;;19.20;11.38;;;;;;;-1.28;56.97;102064.94;2570277;23;20133;-69
2022/01/20 00:30:39;;;;;;;17.50;11.77;;;;;;;-0.54;57.17;102169.81;2570394;23;20143;-69
2022/01/20 00:31:59;;;;;;;20.02;12.13;;;;;;;-0.68;57.08;102147.38;2570070;23;20140;-69
2022/01/20 00:33:15;;;;;;;18.30;11.10;;;;;;;-0.66;56.75;102164.22;2569198;23;20147;-69
2022/01/20 00:34:19;;;;;;;18.13;10.52;;;;;;;-0.79;56.77;102159.72;2569794;23;20139;-69
2022/01/20 00:35:24;;;;;;;16.73;10.93;;;;;;;-0.80;56.38;102164.34;2570141;23;20156;-69
2022/01/20 00:37:45;;;;;;;17.83;10.25;;;;;;;-0.90;56.21;102166.59;2570393;23;20147;-69
2022/01/20 00:38:45;;;;;;;23.25;10.63;;;;;;;-0.89;56.59;102157.28;2570411;23;20148;-69
2022/01/20 00:39:47;;;;;;;18.17;10.07;;;;;;;-1.67;56.74;102049.47;2569999;23;20171;-69
2022/01/20 00:40:48;;;;;;;17.15;10.77;;;;;;;-2.01;56.95;101990.72;2570082;23;20217;-69
2022/01/20 00:41:48;;;;;;;17.57;10.00;;;;;;;-0.98;57.31;102150.25;2569975;23;20213;-69
2022/01/20 00:42:49;;;;;;;19.03;10.70;;;;;;;-1.39;57.63;102081.84;2555980;23;20157;-69
2022/01/20 00:43:49;;;;;;;19.03;10.10;;;;;;;-1.21;57.84;102133.25;2556843;23;20145;-69
2022/01/20 00:44:50;;;;;;;18.20;10.33;;;;;;;-1.00;57.69;102161.44;2569968;23;20155;-69
2022/01/20 00:45:51;;;;;;;19.37;10.57;;;;;;;-1.33;58.24;102122.97;2570032;23;20158;-69
2022/01/20 00:46:52;;;;;;;20.05;10.50;;;;;;;-1.50;57.71;102078.63;2569386;23;20535;-69
2022/01/20 00:47:53;;;;;;;16.23;10.80;;;;;;;-0.98;57.76;102161.13;2556630;23;20246;-69
2022/01/20 00:48:53;;;;;;;16.43;10.87;;;;;;;-1.02;57.34;102153.59;2556911;23;20214;-69
2022/01/20 00:49:54;;;;;;;15.70;10.47;;;;;;;-1.01;57.58;102155.19;2570150;23;20155;-69
2022/01/20 00:50:54;;;;;;;18.00;10.30;;;;;;;-1.03;57.97;102159.34;2570167;23;20491;-69
2022/01/20 00:51:55;;;;;;;19.10;9.17;;;;;;;-1.14;57.73;102139.00;2569804;23;20616;-69
2022/01/20 00:52:56;;;;;;;17.60;9.77;;;;;;;-1.63;57.57;102067.88;2569327;23;20150;-69
2022/01/20 00:53:56;;;;;;;15.30;10.23;;;;;;;-1.05;58.05;102148.00;2569681;23;20154;-69
2022/01/20 00:54:57;;;;;;;16.73;10.70;;;;;;;-1.04;57.49;102140.66;2569694;23;20220;-69
2022/01/20 00:55:57;;;;;;;18.60;10.10;;;;;;;-1.06;58.12;102140.97;2569610;23;20149;-69
2022/01/20 00:56:58;;;;;;;18.20;10.77;;;;;;;-1.05;57.72;102145.28;2569928;23;20554;-69
2022/01/20 00:57:59;;;;;;;16.67;9.52;;;;;;;-1.83;57.52;102019.53;2570021;23;20145;-69
2022/01/20 00:58:59;;;;;;;18.23;9.93;;;;;;;-1.05;57.48;102142.56;2570004;23;20166;-69
2022/01/20 00:59:59;;;;;;;16.00;10.10;;;;;;;-1.06;57.41;102138.22;2570264;23;20183;-69
2022/01/20 01:01:00;;;;;;;16.07;10.10;;;;;;;-1.15;56.79;102123.81;2569818;23;20206;-69
2022/01/20 01:02:05;;;;;;;14.30;9.43;;;;;;;-1.91;56.54;102031.97;2556602;23;20245;-69
2022/01/20 01:03:05;;;;;;;13.50;9.00;;;;;;;-1.12;57.96;102136.78;2556737;23;20535;-69
2022/01/20 01:04:06;;;;;;;15.00;9.60;;;;;;;-3.20;57.75;101801.09;2569785;23;20229;-69
2022/01/20 01:05:09;;;;;;;16.57;9.90;;;;;;;-1.10;57.61;102139.97;2556530;23;20521;-69
2022/01/20 01:06:34;;;;;;;18.90;10.95;;;;;;;-1.10;58.59;102139.97;2556742;23;20185;-69
2022/01/20 01:07:49;;;;;;;14.68;9.25;;;;;;;-1.09;58.40;102129.91;2569855;23;20189;-69
2022/01/20 01:08:50;;;;;;;17.52;9.00;;;;;;;-1.27;57.55;102099.94;2569924;23;20631;-69
2022/01/20 01:09:51;;;;;;;17.23;9.57;;;;;;;-1.08;57.38;102131.50;2569649;23;20550;-69
2022/01/20 01:10:52;;;;;;;16.70;8.43;;;;;;;-1.13;57.33;102135.16;2570055;23;20179;-69
2022/01/20 01:11:57;;;;;;;16.75;9.73;;;;;;;-1.17;57.26;102137.72;2570080;23;20149;-69
2022/01/20 01:13:03;;;;;;;17.02;10.20;;;;;;;-1.19;57.50;102128.28;2568806;23;20145;-69
2022/01/20 01:14:05;;;;;;;15.02;9.40;;;;;;;-1.19;57.66;102131.00;2569700;23;20144;-69
2022/01/20 01:15:12;;;;;;;18.52;10.05;;;;;;;-1.21;58.39;102131.31;2569900;23;20448;-69
2022/01/20 01:16:13;;;;;;;20.65;12.73;;;;;;;-1.21;59.10;102123.16;2569232;23;20168;-69
2022/01/20 01:23:11;;;;;;;21.00;11.65;;;;;;;-1.02;58.98;102119.34;2568724;23;20182;-69
2022/01/20 01:24:12;;;;;;;23.33;13.63;;;;;;;-1.03;59.09;102134.06;2569747;23;20588;-69
2022/01/20 01:25:14;;;;;;;17.63;10.70;;;;;;;-1.02;58.37;102111.19;2569648;23;20159;-69
2022/01/20 01:26:17;;;;;;;19.75;10.55;;;;;;;-1.04;58.24;102106.06;2555878;23;20211;-69
2022/01/20 01:27:21;;;;;;;20.02;10.05;;;;;;;-1.07;58.11;102104.78;2557291;23;20175;-69
2022/01/20 01:28:25;;;;;;;25.80;15.55;;;;;;;-1.03;59.05;102101.44;2569893;23;20297;-69
2022/01/20 01:29:57;;;;;;;18.75;11.60;;;;;;;-1.03;58.49;102110.38;2569669;23;20157;-69
2022/01/20 01:31:58;;;;;;;16.63;9.90;;;;;;;-0.99;57.67;102099.69;2570101;23;20159;-69
2022/01/20 01:32:58;;;;;;;21.57;12.57;;;;;;;-1.02;58.40;102096.44;2568764;23;20183;-69
2022/01/20 01:34:05;;;;;;;30.93;18.17;;;;;;;-1.03;59.51;102095.97;2569573;23;20158;-69
2022/01/20 01:35:08;;;;;;;23.77;15.55;;;;;;;-1.01;59.43;102102.72;2569673;23;20145;-69
2022/01/20 01:36:12;;;;;;;16.92;11.18;;;;;;;-0.97;57.81;102099.03;2569245;23;20155;-69
2022/01/20 01:38:38;;;;;;;27.58;16.88;;;;;;;-1.00;59.36;102101.59;2570097;23;20139;-69
2022/01/20 01:39:39;;;;;;;24.17;13.63;;;;;;;-0.97;58.38;102098.25;2569943;23;20134;-69
2022/01/20 01:40:42;;;;;;;25.23;15.40;;;;;;;-1.68;58.42;101979.13;2569935;23;20178;-69
2022/01/20 01:41:44;;;;;;;20.65;12.45;;;;;;;-0.95;57.94;102093.25;2569911;23;20157;-69
2022/01/20 01:42:47;;;;;;;23.85;13.98;;;;;;;-0.97;58.01;102090.06;2569175;23;20247;-69
2022/01/20 01:43:50;;;;;;;23.17;14.48;;;;;;;-2.04;58.11;101916.09;2568604;23;20203;-69
2022/01/20 01:44:52;;;;;;;21.40;13.32;;;;;;;-1.02;58.87;102082.84;2556375;23;20164;-69
2022/01/20 01:45:53;;;;;;;26.10;15.20;;;;;;;-1.02;60.00;102088.28;2556548;23;20152;-69
2022/01/20 01:46:55;;;;;;;23.47;14.17;;;;;;;-1.62;58.51;102000.41;2556346;23;20161;-70
2022/01/20 01:47:56;;;;;;;19.80;12.73;;;;;;;-1.52;57.12;102002.03;2556941;23;20183;-69
2022/01/20 01:48:57;;;;;;;17.60;11.73;;;;;;;-1.34;56.33;102030.03;2569987;23;20154;-69
2022/01/20 01:49:58;;;;;;;16.63;10.87;;;;;;;-1.02;56.65;102085.56;2569966;23;20534;-69
2022/01/20 01:51:01;;;;;;;17.70;10.40;;;;;;;-1.07;56.26;102096.59;2569787;23;20234;-69
2022/01/20 01:52:02;;;;;;;18.08;10.27;;;;;;;-1.08;56.59;102086.03;2569851;23;20158;-69
2022/01/20 01:53:06;;;;;;;16.23;10.15;;;;;;;-1.08;57.60;102085.25;2568656;23;20153;-69
2022/01/20 01:54:07;;;;;;;16.13;10.18;;;;;;;-2.30;56.56;101898.97;2556284;23;20202;-69
2022/01/20 01:55:08;;;;;;;16.43;9.90;;;;;;;-1.17;57.33;102085.25;2556171;23;20217;-69
2022/01/20 01:56:08;;;;;;;17.05;10.05;;;;;;;-1.98;57.94;101961.00;2568533;23;20148;-69
2022/01/20 01:57:09;;;;;;;14.80;9.93;;;;;;;-1.17;56.95;102076.28;2569850;23;20251;-69
2022/01/20 01:58:10;;;;;;;18.60;9.00;;;;;;;-1.23;56.38;102076.44;2569546;23;20389;-69
2022/01/20 01:59:11;;;;;;;15.83;9.40;;;;;;;-1.23;57.36;102070.19;2568852;23;20157;-69
2022/01/20 02:00:12;;;;;;;14.87;8.63;;;;;;;-1.23;58.31;102081.06;2569054;23;20153;-69
2022/01/20 02:01:13;;;;;;;17.02;8.88;;;;;;;-1.22;56.83;102079.97;2569796;23;20592;-69
2022/01/20 02:02:14;;;;;;;16.48;8.98;;;;;;;-1.33;56.33;102066.97;2569867;23;20596;-69
2022/01/20 02:03:15;;;;;;;29.00;10.53;;;;;;;-1.32;56.29;102069.38;2568600;23;20535;-69
2022/01/20 02:04:19;;;;;;;22.03;9.40;;;;;;;-1.43;56.37;102059.94;2569535;23;20155;-69
2022/01/20 02:05:20;;;;;;;29.30;9.70;;;;;;;-2.21;56.35;101937.00;2569703;23;20156;-69
2022/01/20 02:08:59;;;;;;;16.23;8.25;;;;;;;-2.27;55.86;101947.19;2569937;23;20148;-69
2022/01/20 02:18:24;;;;;;;16.30;8.02;;;;;;;-2.54;58.21;101985.41;2569724;23;20137;-69
2022/01/20 02:19:27;;;;;;;15.02;7.60;;;;;;;-2.16;57.36;102053.63;2569506;23;20137;-69
2022/01/20 02:20:29;;;;;;;15.10;7.40;;;;;;;-2.69;57.32;101998.56;2569858;23;20164;-69
2022/01/20 02:21:30;;;;;;;11.80;6.80;;;;;;;-2.63;57.82;101994.63;2556403;23;20158;-69
2022/01/20 02:22:30;;;;;;;13.77;6.53;;;;;;;-2.27;57.88;102046.88;2556365;23;20190;-69
2022/01/20 02:23:32;;;;;;;11.37;6.30;;;;;;;-2.23;58.38;102036.97;2568273;23;20500;-69
2022/01/20 02:24:33;;;;;;;10.25;6.30;;;;;;;-2.21;58.92;102038.25;2569588;23;20152;-69
2022/01/20 02:25:36;;;;;;;13.07;6.53;;;;;;;-2.16;58.51;102035.41;2569589;23;20145;-69
2022/01/20 02:26:36;;;;;;;13.15;6.07;;;;;;;-2.43;59.08;101994.06;2555599;23;20177;-69
2022/01/20 02:27:37;;;;;;;10.93;6.03;;;;;;;-2.34;59.37;101997.63;2556298;23;20159;-69
2022/01/20 02:28:38;;;;;;;13.97;6.03;;;;;;;-2.17;58.79;102017.50;2569841;23;20152;-69
2022/01/20 02:29:38;;;;;;;14.27;6.60;;;;;;;-2.13;58.92;102021.97;2569809;23;20181;-69
2022/01/20 02:30:43;;;;;;;12.37;6.60;;;;;;;-2.11;59.65;102020.91;2569746;23;20183;-69
2022/01/20 02:31:44;;;;;;;10.65;6.28;;;;;;;-2.58;59.35;101942.94;2569028;23;20161;-69
2022/01/20 02:32:57;;;;;;;10.57;5.90;;;;;;;-2.39;60.81;101993.13;2568438;23;20154;-69
2022/01/20 02:33:58;;;;;;;12.30;5.97;;;;;;;-1.99;60.47;102018.38;2568904;23;20152;-69
2022/01/20 02:34:59;;;;;;;13.82;6.35;;;;;;;-1.94;60.38;102016.31;2569326;23;20508;-69
2022/01/20 02:36:09;;;;;;;11.17;6.33;;;;;;;-1.89;59.94;102012.66;2569235;23;20152;-69
2022/01/20 02:37:13;;;;;;;11.45;5.68;;;;;;;-1.88;60.60;102012.34;2569723;23;20183;-69
2022/01/20 02:39:03;;;;;;;11.65;6.05;;;;;;;-1.86;59.34;102006.59;2569670;23;20493;-69
2022/01/20 02:45:45;;;;;;;12.48;6.13;;;;;;;-2.62;58.37;101874.09;2569649;23;20144;-69
2022/01/20 02:46:46;;;;;;;11.70;6.37;;;;;;;-1.62;58.22;101994.97;2568862;23;20157;-69
2022/01/20 02:47:50;;;;;;;16.03;7.10;;;;;;;-2.37;57.73;101863.31;2569455;23;20186;-69
2022/01/20 02:48:51;;;;;;;12.90;7.00;;;;;;;-1.74;57.58;101966.81;2569501;23;20152;-69
2022/01/20 02:49:52;;;;;;;11.90;6.45;;;;;;;-2.44;56.94;101848.59;2569601;23;20229;-69
2022/01/20 02:50:53;;;;;;;17.60;6.95;;;;;;;-1.55;57.54;101986.34;2569680;23;20149;-69
2022/01/20 02:51:55;;;;;;;14.73;6.80;;;;;;;-1.91;57.89;101953.19;2569699;23;20185;-69
2022/01/20 02:52:55;;;;;;;15.32;6.35;;;;;;;-1.52;57.68;101988.44;2568607;23;20230;-69
2022/01/20 02:53:56;;;;;;;14.60;6.80;;;;;;;-1.90;57.11;101943.91;2569033;23;20176;-69
2022/01/20 02:54:57;;;;;;;13.07;6.37;;;;;;;-1.49;57.44;101987.78;2569325;23;20318;-69
2022/01/20 02:55:57;;;;;;;13.23;7.03;;;;;;;-1.95;57.87;101911.47;2568860;23;20228;-69
2022/01/20 02:56:58;;;;;;;12.90;6.60;;;;;;;-1.88;57.45;101905.56;2569572;23;20192;-69
2022/01/20 02:57:59;;;;;;;16.60;6.80;;;;;;;-1.39;56.86;101983.97;2569530;23;20153;-69
2022/01/20 02:58:59;;;;;;;11.73;6.47;;;;;;;-1.40;56.81;101982.38;2569566;23;20283;-69
2022/01/20 03:00:00;;;;;;;11.63;6.97;;;;;;;-1.45;57.01;101977.09;2569714;23;20180;-69
2022/01/20 03:01:01;;;;;;;14.60;7.33;;;;;;;-1.42;57.23;101978.03;2569558;23;20656;-69
2022/01/20 03:02:04;;;;;;;15.93;8.10;;;;;;;-1.44;57.31;101982.19;2569572;23;20608;-69
2022/01/20 03:03:04;;;;;;;13.68;7.38;;;;;;;-1.48;56.88;101985.88;2568530;23;20614;-69
2022/01/20 03:04:06;;;;;;;14.10;6.97;;;;;;;-1.52;57.15;101985.72;2569003;23;20489;-69
2022/01/20 03:05:07;;;;;;;20.83;7.78;;;;;;;-1.58;57.44;101984.28;2569344;23;20183;-69
2022/01/20 03:06:08;;;;;;;22.48;7.82;;;;;;;-1.60;57.09;101993.88;2568935;23;20156;-69
2022/01/20 03:07:08;;;;;;;17.10;6.50;;;;;;;-1.71;57.46;101974.31;2569479;23;20220;-69
2022/01/20 03:08:09;;;;;;;13.50;6.57;;;;;;;-1.69;57.98;101969.38;2556304;23;20186;-69
2022/01/20 03:09:09;;;;;;;12.10;6.10;;;;;;;-2.47;56.11;101876.38;2556332;23;20256;-69
2022/01/20 03:10:10;;;;;;;10.17;5.77;;;;;;;-1.70;55.98;101983.28;2569169;23;20658;-69
2022/01/20 03:11:10;;;;;;;15.80;6.17;;;;;;;-2.29;55.95;101891.59;2569555;23;20142;-69
2022/01/20 03:12:11;;;;;;;8.67;5.33;;;;;;;-1.89;57.10;101972.72;2569576;23;20179;-69
2022/01/20 03:13:12;;;;;;;10.73;5.70;;;;;;;-1.80;57.32;101984.38;2568548;23;20156;-69
2022/01/20 03:14:14;;;;;;;8.13;5.20;;;;;;;-1.84;56.43;101983.44;2568942;23;20154;-69
2022/01/20 03:15:14;;;;;;;9.25;5.28;;;;;;;-1.85;56.73;101981.81;2556203;23;20599;-69
2022/01/20 03:16:15;;;;;;;9.37;5.37;;;;;;;-1.90;57.12;101990.09;2555574;23;20157;-69
2022/01/20 03:17:17;;;;;;;8.63;4.97;;;;;;;-2.76;56.55;101873.41;2556115;23;20165;-69
2022/01/20 03:18:18;;;;;;;14.05;5.68;;;;;;;-2.11;57.80;101982.88;2556805;23;20530;-69
2022/01/20 03:19:18;;;;;;;12.93;5.77;;;;;;;-2.99;57.86;101837.41;2569490;23;20175;-69
2022/01/20 03:20:19;;;;;;;9.13;5.10;;;;;;;-2.27;58.17;101977.06;2569440;23;20179;-69
2022/01/20 03:21:20;;;;;;;10.63;5.27;;;;;;;-2.24;58.94;102000.06;2569428;23;20152;-69
2022/01/20 03:22:20;;;;;;;10.43;5.20;;;;;;;-2.25;59.45;101977.56;2569535;23;20148;-69
2022/01/20 03:23:21;;;;;;;11.97;5.23;;;;;;;-2.23;59.20;101979.94;2568248;23;20157;-69
2022/01/20 03:24:21;;;;;;;7.03;4.27;;;;;;;-2.20;59.51;101966.56;2568900;23;20592;-69
2022/01/20 03:25:22;;;;;;;9.77;5.23;;;;;;;-2.70;59.74;101885.72;2556242;23;20162;-69
2022/01/20 03:26:22;;;;;;;9.57;5.27;;;;;;;-3.36;59.23;101789.06;2555733;23;20161;-69
2022/01/20 03:27:23;;;;;;;11.37;5.77;;;;;;;-3.02;59.03;101839.94;2569389;23;20420;-69
2022/01/20 03:28:24;;;;;;;15.80;5.93;;;;;;;-2.16;58.84;101970.22;2569411;23;20255;-69
2022/01/20 03:29:24;;;;;;;14.07;5.77;;;;;;;-2.79;58.83;101863.97;2556132;23;20173;-69
2022/01/20 03:30:26;;;;;;;16.13;5.27;;;;;;;-2.10;58.94;101976.31;2556393;23;20156;-69
2022/01/20 03:31:27;;;;;;;9.43;5.55;;;;;;;-2.10;58.83;101985.25;2569080;23;20614;-69
2022/01/20 03:32:28;;;;;;;12.13;5.23;;;;;;;-2.10;58.51;101974.38;2556309;23;20544;-69
2022/01/20 03:33:28;;;;;;;12.13;5.70;;;;;;;-2.48;58.30;101907.34;2554882;23;20149;-69
2022/01/20 03:34:29;;;;;;;12.53;5.43;;;;;;;-2.16;58.85;101964.00;2568818;23;20152;-69
2022/01/20 03:35:31;;;;;;;10.43;5.60;;;;;;;-2.49;58.60;101897.59;2569418;23;20144;-69
2022/01/20 03:36:33;;;;;;;11.05;5.05;;;;;;;-2.70;59.09;101867.53;2569029;23;20664;-69
2022/01/20 03:37:34;;;;;;;14.02;5.40;;;;;;;-2.18;58.36;101944.50;2569235;23;20157;-69
2022/01/20 03:38:35;;;;;;;14.80;5.80;;;;;;;-2.05;59.21;101949.78;2569562;23;20141;-69
2022/01/20 03:39:36;;;;;;;12.57;5.27;;;;;;;-1.96;58.31;101966.91;2569376;23;20179;-69
2022/01/20 03:40:37;;;;;;;11.20;5.30;;;;;;;-1.96;58.88;101963.44;2569511;23;20149;-69
2022/01/20 03:41:37;;;;;;;11.07;5.72;;;;;;;-2.68;58.74;101859.09;2569669;23;20543;-69
2022/01/20 03:42:38;;;;;;;12.67;5.60;;;;;;;-2.20;58.27;101920.38;2569408;23;20159;-69
2022/01/20 03:43:38;;;;;;;12.10;5.27;;;;;;;-2.01;58.59;101967.06;2568411;23;20557;-69
2022/01/20 03:44:39;;;;;;;13.47;5.53;;;;;;;-1.90;58.52;101981.94;2555978;23;20600;-69
2022/01/20 03:45:41;;;;;;;11.27;5.30;;;;;;;-1.91;58.38;101963.28;2556086;23;20181;-69
2022/01/20 03:46:42;;;;;;;11.90;5.65;;;;;;;-2.02;58.05;101957.31;2568649;23;20153;-69
2022/01/20 03:47:43;;;;;;;10.90;5.30;;;;;;;-1.94;57.93;101969.31;2569536;23;20346;-69
2022/01/20 03:48:55;;;;;;;10.73;5.45;;;;;;;-2.04;58.30;101948.69;2556255;23;20412;-69
2022/01/20 03:50:59;;;;;;;11.25;6.20;;;;;;;-2.26;58.00;101932.47;2569592;23;20238;-69
2022/01/20 03:52:00;;;;;;;8.57;5.10;;;;;;;-2.12;58.55;101971.19;2569508;23;20168;-69
2022/01/20 03:53:01;;;;;;;10.30;5.23;;;;;;;-2.12;58.78;101960.34;2567458;23;20176;-69
2022/01/20 03:54:04;;;;;;;8.13;4.53;;;;;;;-2.70;59.09;101872.94;2568113;23;20395;-69
2022/01/20 03:55:24;;;;;;;11.68;4.88;;;;;;;-2.04;59.20;101962.28;2568932;23;20159;-69
2022/01/20 03:56:24;;;;;;;9.02;5.25;;;;;;;-2.01;58.65;101969.78;2568964;23;20144;-69
2022/01/20 03:57:26;;;;;;;9.20;5.03;;;;;;;-2.28;58.02;101928.47;2569362;23;20176;-69
2022/01/20 03:58:26;;;;;;;11.13;4.90;;;;;;;-2.07;57.88;101952.03;2569397;23;20140;-69
2022/01/20 03:59:27;;;;;;;9.70;4.87;;;;;;;-2.05;57.90;101943.56;2569227;23;20244;-69
2022/01/20 04:00:27;;;;;;;11.70;4.93;;;;;;;-1.96;58.54;101964.19;2568646;23;20184;-69
2022/01/20 04:01:28;;;;;;;10.83;4.63;;;;;;;-2.48;58.79;101875.56;2568182;23;20145;-69
2022/01/20 04:02:29;;;;;;;16.97;5.57;;;;;;;-2.98;58.35;101797.53;2569611;23;20148;-69
2022/01/20 04:03:29;;;;;;;12.83;5.10;;;;;;;-1.93;58.23;101955.44;2568180;23;20183;-69
2022/01/20 04:04:30;;;;;;;6.93;4.70;;;;;;;-1.93;58.32;101958.16;2569306;23;20148;-69
2022/01/20 04:05:30;;;;;;;12.27;5.10;;;;;;;-1.91;58.01;101952.41;2569072;23;20153;-69
2022/01/20 04:06:31;;;;;;;11.47;4.73;;;;;;;-1.86;58.63;101954.97;2568839;23;20152;-69
2022/01/20 04:07:32;;;;;;;8.03;4.90;;;;;;;-2.60;57.99;101844.72;2569126;23;20619;-69
2022/01/20 04:08:38;;;;;;;11.07;5.90;;;;;;;-3.28;58.58;101728.66;2556234;23;20184;-69
2022/01/20 04:09:39;;;;;;;9.80;5.32;;;;;;;-1.83;58.48;101945.06;2557502;23;20149;-69
2022/01/20 04:10:39;;;;;;;10.17;4.70;;;;;;;-2.33;58.79;101868.91;2569254;23;20582;-69
2022/01/20 04:11:40;;;;;;;11.13;4.93;;;;;;;-1.94;58.67;101936.72;2569183;23;20177;-69
2022/01/20 04:12:40;;;;;;;11.93;5.57;;;;;;;-2.73;57.85;101821.25;2569042;23;20242;-69
2022/01/20 04:13:41;;;;;;;11.40;5.13;;;;;;;-1.83;58.12;101940.75;2568256;23;20237;-69
2022/01/20 04:14:47;;;;;;;12.57;6.93;;;;;;;-1.84;60.37;101936.44;2569156;23;20160;-69
2022/01/20 04:15:49;;;;;;;10.57;5.20;;;;;;;-1.83;58.44;101932.59;2569169;23;20137;-69
2022/01/20 04:17:00;;;;;;;9.63;5.57;;;;;;;-1.80;59.03;101935.47;2568679;23;20148;-69
2022/01/20 04:18:02;;;;;;;13.95;5.75;;;;;;;-2.00;58.15;101905.41;2569626;23;20160;-69
2022/01/20 04:19:10;;;;;;;11.55;5.10;;;;;;;-1.92;58.53;101927.16;2569503;23;20153;-69
2022/01/20 04:20:11;;;;;;;8.88;5.10;;;;;;;-2.60;58.04;101825.72;2569333;23;20148;-69
2022/01/20 04:21:12;;;;;;;12.33;5.20;;;;;;;-2.79;59.45;101779.06;2569164;23;20179;-69
2022/01/20 04:22:13;;;;;;;15.07;7.10;;;;;;;-2.05;58.87;101902.84;2569405;23;20149;-69
2022/01/20 04:23:14;;;;;;;15.90;6.43;;;;;;;-1.94;59.36;101942.97;2568410;23;20159;-69
2022/01/20 04:24:15;;;;;;;26.93;8.23;;;;;;;-2.21;59.46;101915.25;2569171;23;20210;-69
2022/01/20 04:25:16;;;;;;;15.27;6.47;;;;;;;-1.95;58.23;101924.28;2569205;23;20154;-69
2022/01/20 04:26:17;;;;;;;18.80;7.30;;;;;;;-2.53;59.10;101847.75;2568456;23;20150;-69
2022/01/20 04:27:21;;;;;;;13.82;5.35;;;;;;;-2.82;58.00;101847.53;2569136;23;20149;-69
2022/01/20 04:28:22;;;;;;;8.45;4.65;;;;;;;-2.22;58.69;101933.47;2569047;23;20181;-69
2022/01/20 04:29:23;;;;;;;9.70;4.70;;;;;;;-2.26;59.75;101937.91;2569299;23;20603;-69
2022/01/20 04:30:23;;;;;;;9.83;4.77;;;;;;;-2.53;58.70;101940.84;2569444;23;20156;-69
2022/01/20 04:31:25;;;;;;;9.83;5.60;;;;;;;-2.32;58.70;101931.03;2555703;23;20181;-69
2022/01/20 04:32:26;;;;;;;9.55;5.00;;;;;;;-2.31;60.25;101937.28;2556806;23;20153;-69
2022/01/20 04:33:26;;;;;;;11.77;5.93;;;;;;;-2.26;60.02;101932.47;2554705;23;20150;-69
2022/01/20 04:34:27;;;;;;;18.40;6.03;;;;;;;-2.45;58.57;101902.09;2556015;23;20158;-69
2022/01/20 04:35:28;;;;;;;11.40;5.67;;;;;;;-2.80;58.60;101832.53;2555893;23;20399;-69
2022/01/20 04:36:32;;;;;;;18.63;5.57;;;;;;;-2.82;58.64;101820.41;2555565;23;20146;-69
2022/01/20 04:37:32;;;;;;;14.18;5.75;;;;;;;-2.16;58.62;101924.06;2569218;23;20145;-69
2022/01/20 04:38:33;;;;;;;15.43;5.50;;;;;;;-2.13;57.69;101918.78;2569563;23;20141;-69
2022/01/20 04:39:38;;;;;;;13.87;6.67;;;;;;;-2.92;57.96;101797.06;2569279;23;20605;-69
2022/01/20 04:40:41;;;;;;;14.73;5.75;;;;;;;-2.95;57.33;101824.81;2569388;23;20181;-69
2022/01/20 04:41:42;;;;;;;12.85;6.40;;;;;;;-2.45;58.24;101890.44;2555938;23;20172;-69
2022/01/20 04:42:46;;;;;;;23.23;7.28;;;;;;;-2.20;58.22;101920.38;2555760;23;20636;-69
2022/01/20 04:43:46;;;;;;;10.95;6.70;;;;;;;-2.88;57.94;101805.38;2555554;23;20219;-69
2022/01/20 04:44:53;;;;;;;15.73;6.30;;;;;;;-3.17;57.50;101796.97;2556044;23;20184;-69
2022/01/20 04:47:46;;;;;;;20.15;8.75;;;;;;;-2.51;59.87;101910.69;2549940;23;20165;-69
2022/01/20 04:49:04;;;;;;;16.45;7.03;;;;;;;-3.12;59.29;101826.66;2569317;23;20145;-69
2022/01/20 04:57:59;;;;;;;14.63;6.32;;;;;;;-2.72;61.48;101912.38;2570209;23;20584;-69
2022/01/20 04:59:00;;;;;;;15.43;6.80;;;;;;;-2.73;60.35;101908.84;2569928;23;20815;-69
2022/01/20 05:00:00;;;;;;;15.53;7.97;;;;;;;-2.71;61.30;101914.78;2570207;23;20183;-69
2022/01/20 05:01:03;;;;;;;12.63;7.80;;;;;;;-2.65;62.57;101910.81;2570060;23;20159;-69
2022/01/20 05:02:04;;;;;;;14.88;6.30;;;;;;;-2.61;61.84;101900.13;2570040;23;20950;-69
2022/01/20 05:03:05;;;;;;;11.40;6.13;;;;;;;-2.56;60.49;101910.84;2555712;23;20559;-69
2022/01/20 05:04:06;;;;;;;15.55;6.85;;;;;;;-2.52;61.59;101903.66;2556624;23;20153;-69
2022/01/20 05:05:08;;;;;;;15.47;6.03;;;;;;;-2.44;60.97;101903.69;2569774;23;20173;-69
2022/01/20 05:06:09;;;;;;;11.25;5.45;;;;;;;-2.48;60.28;101899.19;2569166;23;20180;-69
2022/01/20 05:07:17;;;;;;;11.57;5.65;;;;;;;-2.37;59.27;101914.88;2569910;23;20153;-69
2022/01/20 05:08:22;;;;;;;15.63;6.07;;;;;;;-2.35;58.32;101918.09;2570015;23;20172;-66
2022/01/20 05:09:23;;;;;;;12.35;5.55;;;;;;;-2.60;58.47;101888.16;2571251;23;20149;-68
2022/01/20 05:10:24;;;;;;;15.47;6.57;;;;;;;-2.62;58.81;101872.16;2570802;23;20196;-68
2022/01/20 05:11:24;;;;;;;13.33;7.03;;;;;;;-2.50;58.60;101898.72;2570996;23;20152;-68
2022/01/20 05:12:35;;;;;;;12.97;5.30;;;;;;;-2.47;59.37;101906.25;2571030;23;20494;-68
2022/01/20 05:13:40;;;;;;;13.10;5.75;;;;;;;-2.44;61.23;101892.84;2570714;23;20571;-68
2022/01/20 05:14:40;;;;;;;12.02;6.07;;;;;;;-2.44;60.91;101897.47;2557719;23;20162;-68
2022/01/20 05:15:41;;;;;;;13.57;6.47;;;;;;;-2.33;62.59;101915.06;2557917;23;20153;-68
2022/01/20 05:16:42;;;;;;;9.23;5.87;;;;;;;-2.27;64.25;101920.03;2570869;23;20150;-68
2022/01/20 05:17:42;;;;;;;16.73;6.57;;;;;;;-3.17;61.49;101776.09;2557672;23;20185;-68
2022/01/20 05:18:43;;;;;;;14.03;6.00;;;;;;;-2.31;63.19;101919.06;2557858;23;20150;-68
2022/01/20 05:19:43;;;;;;;13.03;6.17;;;;;;;-2.50;60.58;101890.56;2570929;23;20159;-68
2022/01/20 05:20:44;;;;;;;17.70;6.80;;;;;;;-2.38;61.84;101923.34;2570932;23;20148;-68
2022/01/20 05:21:44;;;;;;;16.33;6.47;;;;;;;-2.82;64.20;101850.25;2570828;23;20550;-68
2022/01/20 05:22:45;;;;;;;15.40;8.20;;;;;;;-2.54;61.71;101890.41;2570867;23;20162;-68
2022/01/20 05:23:46;;;;;;;19.35;9.13;;;;;;;-2.38;60.55;101915.19;2570894;23;20149;-68
2022/01/20 05:24:46;;;;;;;16.13;8.10;;;;;;;-2.87;62.02;101886.44;2570793;23;20625;-68
2022/01/20 05:25:47;;;;;;;21.77;11.10;;;;;;;-2.40;61.61;101926.41;2557434;23;20155;-68
2022/01/20 05:26:50;;;;;;;16.10;9.13;;;;;;;-2.33;58.97;101909.63;2557539;23;20157;-68
2022/01/20 05:27:51;;;;;;;18.90;9.32;;;;;;;-3.50;58.60;101733.38;2569999;23;20430;-68
2022/01/20 05:28:51;;;;;;;23.73;8.70;;;;;;;-2.40;58.52;101907.38;2570263;23;20166;-68
2022/01/20 05:29:52;;;;;;;21.00;6.60;;;;;;;-2.28;57.69;101915.72;2570651;23;20156;-68
2022/01/20 05:30:52;;;;;;;13.67;6.30;;;;;;;-2.65;58.64;101875.53;2570799;23;20473;-68
2022/01/20 05:31:53;;;;;;;14.40;6.30;;;;;;;-2.33;57.91;101917.75;2570909;23;20594;-68
2022/01/20 05:32:53;;;;;;;20.00;11.40;;;;;;;-2.31;57.97;101919.06;2570395;23;20501;-68
2022/01/20 05:33:54;;;;;;;17.73;7.77;;;;;;;-2.30;57.92;101917.97;2570527;23;20153;-68
2022/01/20 05:34:55;;;;;;;31.57;11.10;;;;;;;-2.30;57.66;101925.28;2570550;23;20149;-68
2022/01/20 05:35:55;;;;;;;28.13;10.73;;;;;;;-2.32;57.52;101920.16;2570475;23;20223;-68
2022/01/20 05:36:56;;;;;;;26.73;10.67;;;;;;;-2.30;57.74;101920.69;2569197;23;20192;-68
2022/01/20 05:37:56;;;;;;;21.73;10.43;;;;;;;-2.60;57.34;101910.66;2569712;23;20155;-68
2022/01/20 05:38:57;;;;;;;26.33;13.47;;;;;;;-2.37;58.16;101924.97;2569027;23;20179;-68
2022/01/20 05:39:57;;;;;;;32.73;16.00;;;;;;;-2.59;59.10;101912.25;2556759;23;20240;-68
2022/01/20 05:40:58;;;;;;;37.60;16.23;;;;;;;-3.24;59.00;101819.09;2556418;23;20157;-68
2022/01/20 05:41:58;;;;;;;32.63;15.83;;;;;;;-3.09;59.72;101851.22;2570389;23;20172;-68
2022/01/20 05:42:59;;;;;;;40.23;15.10;;;;;;;-3.44;63.08;101772.75;2555885;23;20161;-68